Time;durP1;ratioP1;P1;durP2;ratioP2;P2;SDS_P1;SDS_P2;PMS_P1;PMS_P2;Temp;Humidity;BMP_temperature;BMP_pressure;BME280_temperature;BME280_humidity;BME280_pressure;Samples;Min_cycle;Max_cycle;Signal;HPM_P1;HPM_P2
2023/04/01 00:00:23;;;;;;;;;;;10.10;99.90;;;;;;5058038;28;19975;-78
2023/04/01 00:02:49;;;;;;;;;;;10.10;99.90;;;;;;5040758;28;19911;-78
2023/04/01 00:05:16;;;;;;;;;;;10.00;99.90;;;;;;5058405;28;19908;-74
2023/04/01 00:07:42;;;;;;;;;;;10.00;99.90;;;;;;5056820;28;19911;-74
2023/04/01 00:10:10;;;;;;;;;;;10.10;99.90;;;;;;5040285;28;19999;-78
2023/04/01 00:12:35;;;;;;;;;;;10.10;99.90;;;;;;5040872;28;20387;-78
2023/04/01 00:15:02;;;;;;;;;;;10.00;99.90;;;;;;5059336;28;19911;-78
2023/04/01 00:17:27;;;;;;;;;;;10.00;99.90;;;;;;5059125;28;19944;-78
2023/04/01 00:19:56;;;;;;;;;;;10.10;99.90;;;;;;5040694;28;19959;-78
2023/04/01 00:22:22;;;;;;;;;;;10.00;99.90;;;;;;5058582;28;19904;-78
2023/04/01 00:24:48;;;;;;;;;;;10.10;99.90;;;;;;5040137;28;20015;-77
2023/04/01 00:27:14;;;;;;;;;;;11.50;99.90;;;;;;5056893;28;19970;-77
2023/04/01 00:29:43;;;;;;;;;;;10.30;99.90;;;;;;5039019;28;20275;-77
2023/04/01 00:32:09;;;;;;;;;;;10.00;99.90;;;;;;5039350;28;19905;-78
2023/04/01 00:34:35;;;;;;;;;;;10.00;99.90;;;;;;5039657;28;19911;-78
2023/04/01 00:37:00;;;;;;;;;;;9.90;99.90;;;;;;5039756;28;19909;-78
2023/04/01 00:39:28;;;;;;;;;;;10.00;99.90;;;;;;5056720;28;19909;-77
2023/04/01 00:41:54;;;;;;;;;;;10.50;99.90;;;;;;5038839;28;20334;-77
2023/04/01 00:44:23;;;;;;;;;;;10.00;99.90;;;;;;5038991;28;19951;-77
2023/04/01 00:46:49;;;;;;;;;;;9.90;99.90;;;;;;5038618;28;19962;-78
2023/04/01 00:49:16;;;;;;;;;;;10.50;99.90;;;;;;5056746;28;19913;-78
2023/04/01 00:51:42;;;;;;;;;;;9.90;99.90;;;;;;5038993;28;19909;-78
2023/04/01 00:54:08;;;;;;;;;;;9.90;99.90;;;;;;5056809;28;20311;-78
2023/04/01 00:56:36;;;;;;;;;;;10.40;99.90;;;;;;5057281;28;19905;-78
2023/04/01 00:59:08;;;;;;;;;;;10.50;99.90;;;;;;5056987;28;19905;-78
2023/04/01 01:01:34;;;;;;;;;;;9.80;99.90;;;;;;5056677;28;19905;-78
2023/04/01 01:04:02;;;;;;;;;;;9.80;99.90;;;;;;5057489;28;20365;-78
2023/04/01 01:06:27;;;;;;;;;;;9.80;99.90;;;;;;5056235;28;19908;-77
2023/04/01 01:08:56;;;;;;;;;;;9.80;99.90;;;;;;5038446;28;19904;-77
2023/04/01 01:11:51;;;;;;;;;;;9.70;99.90;;;;;;5056225;28;19991;-77
2023/04/01 01:14:16;;;;;;;;;;;9.80;99.90;;;;;;5038722;28;19908;-77
2023/04/01 01:16:44;;;;;;;;;;;9.70;99.90;;;;;;5055801;28;19916;-77
2023/04/01 01:19:28;;;;;;;;;;;9.70;99.90;;;;;;5055673;28;19909;-77
2023/04/01 01:22:04;;;;;;;;;;;9.60;99.90;;;;;;5037547;28;19912;-74
2023/04/01 01:24:39;;;;;;;;;;;9.60;99.90;;;;;;5055813;28;19911;-75
2023/04/01 01:27:12;;;;;;;;;;;9.60;99.90;;;;;;5037417;28;19912;-74
2023/04/01 01:29:44;;;;;;;;;;;9.60;99.90;;;;;;5037446;28;19912;-74
2023/04/01 01:32:28;;;;;;;;;;;9.50;99.90;;;;;;5037677;28;20276;-74
2023/04/01 01:35:12;;;;;;;;;;;9.50;99.90;;;;;;5055481;28;19904;-75
2023/04/01 01:37:39;;;;;;;;;;;9.50;99.90;;;;;;5054775;28;19904;-74
2023/04/01 01:40:06;;;;;;;;;;;9.60;99.90;;;;;;5055680;28;20046;-74
2023/04/01 01:42:33;;;;;;;;;;;9.50;99.90;;;;;;5037067;28;20359;-75
2023/04/01 01:44:59;;;;;;;;;;;9.40;99.90;;;;;;5036999;28;19905;-75
2023/04/01 01:47:26;;;;;;;;;;;9.50;99.90;;;;;;5055133;28;20373;-74
2023/04/01 01:49:53;;;;;;;;;;;9.50;99.90;;;;;;5037201;28;19920;-74
2023/04/01 01:52:18;;;;;;;;;;;9.50;99.90;;;;;;5055533;28;19970;-74
2023/04/01 01:54:54;;;;;;;;;;;10.90;99.90;;;;;;5055776;28;20352;-74
2023/04/01 01:57:23;;;;;;;;;;;9.40;99.90;;;;;;5054987;28;19954;-74
2023/04/01 01:59:49;;;;;;;;;;;9.40;99.90;;;;;;5054830;28;19904;-73
2023/04/01 02:02:14;;;;;;;;;;;9.40;99.90;;;;;;5037124;28;19904;-75
2023/04/01 02:04:42;;;;;;;;;;;9.40;99.90;;;;;;5055471;28;20004;-74
2023/04/01 02:07:10;;;;;;;;;;;9.40;99.90;;;;;;5054668;28;19908;-73
2023/04/01 02:09:36;;;;;;;;;;;9.40;99.90;;;;;;5055212;28;20271;-73
2023/04/01 02:12:06;;;;;;;;;;;9.40;99.90;;;;;;5038152;28;19912;-73
2023/04/01 02:14:51;;;;;;;;;;;9.30;99.90;;;;;;5054755;28;20356;-74
2023/04/01 02:17:18;;;;;;;;;;;9.30;99.90;;;;;;5054636;28;19905;-74
2023/04/01 02:19:52;;;;;;;;;;;9.30;99.90;;;;;;5036526;28;19904;-74
2023/04/01 02:22:21;;;;;;;;;;;9.30;99.90;;;;;;5054865;28;19958;-74
2023/04/01 02:24:48;;;;;;;;;;;9.30;99.90;;;;;;5054939;28;19904;-74
2023/04/01 02:27:13;;;;;;;;;;;9.40;99.90;;;;;;5036140;28;19999;-75
2023/04/01 02:29:39;;;;;;;;;;;9.40;99.90;;;;;;5054168;28;19948;-74
2023/04/01 02:32:05;;;;;;;;;;;9.40;99.90;;;;;;5036162;28;19905;-74
2023/04/01 02:34:31;;;;;;;;;;;9.40;99.90;;;;;;5036743;28;19909;-74
2023/04/01 02:36:57;;;;;;;;;;;9.40;99.90;;;;;;5054063;28;20355;-74
2023/04/01 02:39:22;;;;;;;;;;;9.40;99.90;;;;;;5054142;28;20303;-74
2023/04/01 02:41:48;;;;;;;;;;;9.40;99.90;;;;;;5054529;28;19999;-74
2023/04/01 02:44:14;;;;;;;;;;;9.40;99.90;;;;;;5054632;28;20344;-74
2023/04/01 02:46:40;;;;;;;;;;;9.70;99.90;;;;;;5036000;28;19909;-74
2023/04/01 02:49:05;;;;;;;;;;;9.40;99.90;;;;;;5053706;28;19917;-74
2023/04/01 02:51:34;;;;;;;;;;;9.30;99.90;;;;;;5035994;28;19908;-74
2023/04/01 02:54:00;;;;;;;;;;;9.40;99.90;;;;;;5036335;28;19952;-73
2023/04/01 02:56:25;;;;;;;;;;;9.40;99.90;;;;;;5036141;28;20330;-73
2023/04/01 02:58:51;;;;;;;;;;;9.40;99.90;;;;;;5036589;28;19905;-74
2023/04/01 03:01:17;;;;;;;;;;;9.40;99.90;;;;;;5054774;28;19905;-74
2023/04/01 03:03:42;;;;;;;;;;;9.40;99.90;;;;;;5036300;28;19909;-74
2023/04/01 03:06:09;;;;;;;;;;;9.50;99.90;;;;;;5053941;28;19909;-74
2023/04/01 03:08:34;;;;;;;;;;;9.40;99.90;;;;;;5036165;28;19970;-74
2023/04/01 03:11:00;;;;;;;;;;;9.40;99.90;;;;;;5035684;28;20081;-74
2023/04/01 03:13:25;;;;;;;;;;;9.40;99.90;;;;;;5035980;28;19938;-75
2023/04/01 03:15:51;;;;;;;;;;;9.40;99.90;;;;;;5054043;28;19948;-74
2023/04/01 03:18:16;;;;;;;;;;;9.40;99.90;;;;;;5053764;28;19904;-74
2023/04/01 03:20:42;;;;;;;;;;;9.50;99.90;;;;;;5035907;28;19905;-74
2023/04/01 03:23:08;;;;;;;;;;;9.40;99.90;;;;;;5053878;28;19904;-74
2023/04/01 03:25:33;;;;;;;;;;;9.40;99.90;;;;;;5053612;28;20014;-75
2023/04/01 03:27:59;;;;;;;;;;;9.50;99.90;;;;;;5053430;28;20368;-74
2023/04/01 03:30:25;;;;;;;;;;;10.00;99.90;;;;;;5035684;28;19905;-75
2023/04/01 03:32:51;;;;;;;;;;;9.40;99.90;;;;;;5035647;28;19931;-74
2023/04/01 03:35:17;;;;;;;;;;;9.50;99.90;;;;;;5035586;28;19905;-74
2023/04/01 03:37:42;;;;;;;;;;;9.50;99.90;;;;;;5053620;28;20406;-74
2023/04/01 03:40:08;;;;;;;;;;;9.50;99.90;;;;;;5053702;28;20356;-75
2023/04/01 03:42:34;;;;;;;;;;;9.50;99.90;;;;;;5053254;28;19995;-75
2023/04/01 03:45:00;;;;;;;;;;;9.50;99.90;;;;;;5053250;28;20278;-75
2023/04/01 03:47:25;;;;;;;;;;;10.30;99.90;;;;;;5035291;28;19992;-75
2023/04/01 03:49:51;;;;;;;;;;;9.60;99.90;;;;;;5053148;28;20441;-75
2023/04/01 03:52:16;;;;;;;;;;;9.60;99.90;;;;;;5035489;28;19905;-75
2023/04/01 03:54:42;;;;;;;;;;;9.60;99.90;;;;;;5053780;28;20423;-74
2023/04/01 03:57:07;;;;;;;;;;;9.60;99.90;;;;;;5035618;28;19927;-74
2023/04/01 03:59:33;;;;;;;;;;;9.70;99.90;;;;;;5035387;28;20406;-74
2023/04/01 04:01:59;;;;;;;;;;;9.70;99.90;;;;;;5055753;28;19904;-74
2023/04/01 04:04:25;;;;;;;;;;;9.70;99.90;;;;;;5038993;28;19954;-74
2023/04/01 04:06:51;;;;;;;;;;;9.80;99.90;;;;;;5056681;28;19966;-74
2023/04/01 04:09:16;;;;;;;;;;;9.80;99.90;;;;;;5056963;28;19998;-74
2023/04/01 04:11:42;;;;;;;;;;;9.80;99.90;;;;;;5039023;28;20019;-74
2023/04/01 04:14:07;;;;;;;;;;;9.80;99.90;;;;;;5056765;28;19909;-75
2023/04/01 04:16:36;;;;;;;;;;;9.80;99.90;;;;;;5056887;28;19944;-75
2023/04/01 04:19:02;;;;;;;;;;;9.80;99.90;;;;;;5056768;28;19911;-76
2023/04/01 04:21:27;;;;;;;;;;;9.90;99.90;;;;;;5056725;28;19987;-77
2023/04/01 04:23:53;;;;;;;;;;;9.80;99.90;;;;;;5039182;28;19909;-77
2023/04/01 04:26:18;;;;;;;;;;;9.90;99.90;;;;;;5056483;28;19915;-77
2023/04/01 04:28:44;;;;;;;;;;;10.00;99.90;;;;;;5056374;28;19935;-77
2023/04/01 04:31:09;;;;;;;;;;;11.50;99.90;;;;;;5038618;28;19999;-76
2023/04/01 04:33:35;;;;;;;;;;;10.00;99.90;;;;;;5038699;28;20431;-76
2023/04/01 04:36:01;;;;;;;;;;;9.90;99.90;;;;;;5056860;28;19916;-76
2023/04/01 04:38:26;;;;;;;;;;;9.90;99.90;;;;;;5057338;28;19912;-76
2023/04/01 04:40:52;;;;;;;;;;;10.20;99.90;;;;;;5038740;28;20390;-77
2023/04/01 04:43:18;;;;;;;;;;;9.90;99.90;;;;;;5056187;28;19912;-76
2023/04/01 04:45:44;;;;;;;;;;;9.90;99.90;;;;;;5038516;28;19908;-77
2023/04/01 04:48:10;;;;;;;;;;;9.80;99.90;;;;;;5038396;28;20015;-76
2023/04/01 04:50:36;;;;;;;;;;;10.10;99.90;;;;;;5056068;28;20007;-77
2023/04/01 04:53:02;;;;;;;;;;;9.90;99.90;;;;;;5056153;28;19985;-76
2023/04/01 04:55:27;;;;;;;;;;;9.90;99.90;;;;;;5038791;28;19952;-77
2023/04/01 04:57:53;;;;;;;;;;;9.90;99.90;;;;;;5055893;28;19974;-77
2023/04/01 05:00:18;;;;;;;;;;;9.90;99.90;;;;;;5056231;28;19911;-77
2023/04/01 05:02:44;;;;;;;;;;;10.00;99.90;;;;;;5056218;28;20269;-77
2023/04/01 05:05:10;;;;;;;;;;;9.90;99.90;;;;;;5055696;28;19905;-77
2023/04/01 05:07:35;;;;;;;;;;;9.90;99.90;;;;;;5038143;28;19908;-77
2023/04/01 05:10:01;;;;;;;;;;;9.90;99.90;;;;;;5038094;28;19905;-77
2023/04/01 05:12:26;;;;;;;;;;;10.00;99.90;;;;;;5055302;28;19905;-77
2023/04/01 05:14:52;;;;;;;;;;;9.90;99.90;;;;;;5055791;28;20253;-77
2023/04/01 05:17:17;;;;;;;;;;;9.90;99.90;;;;;;5037700;28;19911;-76
2023/04/01 05:19:43;;;;;;;;;;;9.90;99.90;;;;;;5055352;28;19909;-76
2023/04/01 05:22:08;;;;;;;;;;;10.00;99.90;;;;;;5037476;28;19905;-77
2023/04/01 05:24:34;;;;;;;;;;;11.00;99.90;;;;;;5055403;28;19905;-77
2023/04/01 05:27:00;;;;;;;;;;;9.90;99.90;;;;;;5038093;28;20330;-77
2023/04/01 05:29:25;;;;;;;;;;;9.90;99.90;;;;;;5055781;28;19905;-77
2023/04/01 05:31:51;;;;;;;;;;;10.00;99.90;;;;;;5055724;28;19915;-77
2023/04/01 05:34:16;;;;;;;;;;;9.90;99.90;;;;;;5037866;28;20390;-77
2023/04/01 05:36:43;;;;;;;;;;;9.90;99.90;;;;;;5038726;28;19909;-79
2023/04/01 05:39:09;;;;;;;;;;;9.90;99.90;;;;;;5056178;28;19904;-78
2023/04/01 05:41:35;;;;;;;;;;;10.00;99.90;;;;;;5037833;28;20386;-78
2023/04/01 05:44:00;;;;;;;;;;;10.00;99.90;;;;;;5055970;28;20003;-78
2023/04/01 05:46:26;;;;;;;;;;;10.20;99.90;;;;;;5055602;28;20441;-78
2023/04/01 05:48:51;;;;;;;;;;;10.00;99.90;;;;;;5037563;28;20003;-78
2023/04/01 05:51:17;;;;;;;;;;;10.00;99.90;;;;;;5037844;28;19905;-78
2023/04/01 05:53:42;;;;;;;;;;;14.10;99.90;;;;;;5056160;28;19909;-78
2023/04/01 05:56:09;;;;;;;;;;;11.40;99.90;;;;;;5037149;28;19909;-78
2023/04/01 05:58:35;;;;;;;;;;;10.00;99.90;;;;;;5055182;28;19905;-78
2023/04/01 06:01:05;;;;;;;;;;;10.00;99.90;;;;;;5055252;28;20375;-78
2023/04/01 06:03:30;;;;;;;;;;;10.00;99.90;;;;;;5055417;28;19909;-78
2023/04/01 06:05:56;;;;;;;;;;;10.00;99.90;;;;;;5055272;28;20007;-78
2023/04/01 06:08:21;;;;;;;;;;;9.90;99.90;;;;;;5037418;28;20016;-78
2023/04/01 06:10:59;;;;;;;;;;;10.00;99.90;;;;;;5055373;28;19928;-77
2023/04/01 06:13:32;;;;;;;;;;;10.00;99.90;;;;;;5037335;28;19905;-77
2023/04/01 06:16:17;;;;;;;;;;;10.00;99.90;;;;;;5036810;28;19905;-77
2023/04/01 06:18:49;;;;;;;;;;;10.00;99.90;;;;;;5036888;28;19959;-78
2023/04/01 06:21:23;;;;;;;;;;;10.00;99.90;;;;;;5036590;28;19905;-77
2023/04/01 06:23:51;;;;;;;;;;;10.00;99.90;;;;;;5055222;28;19951;-77
2023/04/01 06:26:17;;;;;;;;;;;10.30;99.90;;;;;;5036507;28;19908;-79
2023/04/01 06:28:42;;;;;;;;;;;10.00;99.90;;;;;;5054428;28;19909;-77
2023/04/01 06:31:14;;;;;;;;;;;10.10;99.90;;;;;;5036697;28;19905;-77
2023/04/01 06:33:41;;;;;;;;;;;10.00;99.90;;;;;;5054515;28;19988;-78
2023/04/01 06:36:13;;;;;;;;;;;10.00;99.90;;;;;;5054545;28;20356;-78
2023/04/01 06:38:38;;;;;;;;;;;10.20;99.90;;;;;;5036573;28;19911;-77
2023/04/01 06:41:23;;;;;;;;;;;10.40;99.90;;;;;;5036395;28;20283;-77
2023/04/01 06:44:07;;;;;;;;;;;10.00;99.90;;;;;;5054724;28;19912;-77
2023/04/01 06:46:38;;;;;;;;;;;10.00;99.90;;;;;;5053981;28;20368;-77
2023/04/01 06:49:25;;;;;;;;;;;10.00;99.90;;;;;;5036036;28;19913;-78
2023/04/01 06:51:58;;;;;;;;;;;10.10;99.90;;;;;;5035737;28;19924;-77
2023/04/01 06:54:28;;;;;;;;;;;10.00;99.90;;;;;;5036344;28;19905;-78
2023/04/01 06:56:57;;;;;;;;;;;10.00;99.90;;;;;;5054146;28;19954;-77
2023/04/01 06:59:27;;;;;;;;;;;10.00;99.90;;;;;;5054641;28;19905;-78
2023/04/01 07:02:01;;;;;;;;;;;10.00;99.90;;;;;;5054618;28;19904;-78
2023/04/01 07:04:32;;;;;;;;;;;10.00;99.90;;;;;;5055022;28;19962;-77
2023/04/01 07:06:59;;;;;;;;;;;10.00;99.90;;;;;;5036306;28;19909;-77
2023/04/01 07:09:32;;;;;;;;;;;10.00;99.90;;;;;;5037400;28;19905;-77
2023/04/01 07:12:01;;;;;;;;;;;10.00;99.90;;;;;;5036293;28;20041;-77
2023/04/01 07:14:35;;;;;;;;;;;10.00;99.90;;;;;;5054369;28;19904;-77
2023/04/01 07:17:08;;;;;;;;;;;10.00;99.90;;;;;;5036695;28;19947;-77
2023/04/01 07:19:56;;;;;;;;;;;10.00;99.90;;;;;;5054845;28;19904;-76
2023/04/01 07:22:28;;;;;;;;;;;10.00;99.90;;;;;;5036385;28;20294;-77
2023/04/01 07:24:57;;;;;;;;;;;10.00;99.90;;;;;;5054319;28;19926;-77
2023/04/01 07:27:23;;;;;;;;;;;10.00;99.90;;;;;;5036583;28;19947;-77
2023/04/01 07:29:49;;;;;;;;;;;10.00;99.90;;;;;;5054335;28;19905;-78
2023/04/01 07:32:24;;;;;;;;;;;10.10;99.90;;;;;;5037232;28;20264;-78
2023/04/01 07:34:49;;;;;;;;;;;10.10;99.90;;;;;;5036735;28;20372;-78
2023/04/01 07:37:18;;;;;;;;;;;10.10;99.90;;;;;;5039675;28;19912;-78
2023/04/01 07:39:52;;;;;;;;;;;10.20;99.90;;;;;;5040981;28;19915;-74
2023/04/01 07:42:27;;;;;;;;;;;10.20;99.90;;;;;;5040106;28;19912;-74
2023/04/01 07:45:01;;;;;;;;;;;10.20;99.90;;;;;;5057991;28;19904;-75
2023/04/01 07:47:57;;;;;;;;;;;10.20;99.90;;;;;;5057641;28;19912;-75
2023/04/01 07:50:23;;;;;;;;;;;10.30;99.90;;;;;;5024215;28;20356;-75
2023/04/01 07:53:15;;;;;;;;;;;10.30;99.90;;;;;;5040062;28;19912;-75
2023/04/01 07:55:49;;;;;;;;;;;10.40;99.90;;;;;;5027041;28;19927;-74
2023/04/01 07:58:33;;;;;;;;;;;10.40;99.90;;;;;;5039697;28;20390;-74
2023/04/01 08:01:09;;;;;;;;;;;10.40;99.90;;;;;;5039759;28;19983;-74
2023/04/01 08:03:37;;;;;;;;;;;10.40;99.90;;;;;;5057225;28;20360;-74
2023/04/01 08:06:08;;;;;;;;;;;10.40;99.90;;;;;;5058377;28;19908;-78
2023/04/01 08:08:46;;;;;;;;;;;10.40;99.90;;;;;;5039648;28;20406;-77
2023/04/01 08:11:11;;;;;;;;;;;10.50;99.90;;;;;;5040847;28;20380;-78
2023/04/01 08:13:53;;;;;;;;;;;10.50;99.90;;;;;;5059115;28;19904;-78
2023/04/01 08:16:30;;;;;;;;;;;10.50;99.90;;;;;;5041675;28;19912;-78
2023/04/01 08:19:14;;;;;;;;;;;10.60;99.90;;;;;;5040762;28;20336;-78
2023/04/01 08:21:40;;;;;;;;;;;10.60;99.90;;;;;;5041340;28;19954;-78
2023/04/01 08:24:29;;;;;;;;;;;10.70;99.90;;;;;;5040782;28;19905;-78
2023/04/01 08:26:56;;;;;;;;;;;10.70;99.90;;;;;;5040081;28;20359;-78
2023/04/01 08:29:23;;;;;;;;;;;10.70;99.90;;;;;;5040435;28;19947;-78
2023/04/01 08:31:48;;;;;;;;;;;10.70;99.90;;;;;;5057797;28;19997;-78
2023/04/01 08:34:19;;;;;;;;;;;10.70;99.90;;;;;;5058138;28;19947;-77
2023/04/01 08:36:49;;;;;;;;;;;10.70;99.90;;;;;;5039634;28;19904;-78
2023/04/01 08:39:32;;;;;;;;;;;10.70;99.90;;;;;;5057678;28;19905;-78
2023/04/01 08:42:17;;;;;;;;;;;10.60;99.90;;;;;;5058008;28;19904;-78
2023/04/01 08:44:49;;;;;;;;;;;10.60;99.90;;;;;;5057575;28;19915;-78
2023/04/01 08:47:23;;;;;;;;;;;10.60;99.90;;;;;;5056090;28;19909;-78
2023/04/01 08:50:01;;;;;;;;;;;10.60;99.90;;;;;;5040055;28;20012;-78
2023/04/01 08:52:26;;;;;;;;;;;10.60;99.90;;;;;;5058387;28;20299;-78
2023/04/01 08:54:55;;;;;;;;;;;10.60;99.90;;;;;;5039393;28;19924;-77
2023/04/01 08:57:39;;;;;;;;;;;10.70;99.90;;;;;;5039860;28;19987;-78
2023/04/01 09:00:04;;;;;;;;;;;10.70;99.90;;;;;;5039818;28;19905;-78
2023/04/01 09:02:33;;;;;;;;;;;10.80;99.90;;;;;;5039869;28;19931;-78
2023/04/01 09:04:58;;;;;;;;;;;10.90;99.90;;;;;;5040166;28;19950;-78
2023/04/01 09:07:33;;;;;;;;;;;11.50;99.90;;;;;;5056505;28;19991;-75
2023/04/01 09:10:11;;;;;;;;;;;11.00;99.90;;;;;;5038153;28;19904;-74
2023/04/01 09:12:42;;;;;;;;;;;11.00;99.90;;;;;;5037861;28;19954;-74
2023/04/01 09:15:07;;;;;;;;;;;11.10;99.90;;;;;;5038199;28;19927;-74
2023/04/01 09:17:51;;;;;;;;;;;11.00;99.90;;;;;;5037822;28;19905;-74
2023/04/01 09:20:19;;;;;;;;;;;11.00;99.90;;;;;;5056607;28;19996;-74
2023/04/01 09:22:54;;;;;;;;;;;11.00;99.90;;;;;;5037773;28;19909;-74
2023/04/01 09:25:19;;;;;;;;;;;11.00;99.90;;;;;;5056043;28;19905;-75
2023/04/01 09:28:05;;;;;;;;;;;11.10;99.90;;;;;;5037805;28;20419;-74
2023/04/01 09:30:45;;;;;;;;;;;11.10;99.90;;;;;;5041495;28;20290;-74
2023/04/01 09:33:37;;;;;;;;;;;11.10;99.90;;;;;;5055776;28;19959;-74
2023/04/01 09:36:09;;;;;;;;;;;11.10;99.90;;;;;;5007702;28;19909;-74
2023/04/01 09:38:37;;;;;;;;;;;11.20;99.90;;;;;;5055245;28;19905;-74
2023/04/01 09:41:06;;;;;;;;;;;11.10;99.90;;;;;;5037140;28;19905;-74
2023/04/01 09:43:46;;;;;;;;;;;11.20;99.90;;;;;;5037412;28;19908;-74
2023/04/01 09:46:11;;;;;;;;;;;11.20;99.90;;;;;;5054827;28;19912;-74
2023/04/01 09:48:55;;;;;;;;;;;11.20;99.90;;;;;;5037405;28;20356;-74
2023/04/01 09:51:24;;;;;;;;;;;11.20;99.90;;;;;;5037070;28;19913;-74
2023/04/01 09:53:56;;;;;;;;;;;11.30;99.90;;;;;;5055436;28;19950;-74
2023/04/01 09:56:25;;;;;;;;;;;11.30;99.90;;;;;;5055336;28;19908;-74
2023/04/01 09:58:53;;;;;;;;;;;11.30;99.90;;;;;;5054675;28;19952;-73
2023/04/01 10:01:28;;;;;;;;;;;11.40;99.90;;;;;;5037051;28;19948;-73
2023/04/01 10:04:17;;;;;;;;;;;11.40;99.90;;;;;;5054792;28;19959;-73
2023/04/01 10:07:13;;;;;;;;;;;11.50;99.90;;;;;;5055084;28;19912;-73
2023/04/01 10:09:41;;;;;;;;;;;11.50;99.90;;;;;;5037453;28;19912;-73
2023/04/01 10:12:26;;;;;;;;;;;11.50;99.90;;;;;;5036854;28;19911;-74
2023/04/01 10:14:52;;;;;;;;;;;11.50;99.90;;;;;;5054781;28;19912;-74
2023/04/01 10:17:20;;;;;;;;;;;11.40;99.90;;;;;;5036685;28;20360;-74
2023/04/01 10:19:48;;;;;;;;;;;11.40;99.90;;;;;;5055024;28;20281;-73
2023/04/01 10:22:31;;;;;;;;;;;11.40;99.90;;;;;;5037137;28;20271;-74
2023/04/01 10:25:22;;;;;;;;;;;11.40;99.90;;;;;;5055100;28;19954;-73
2023/04/01 10:27:59;;;;;;;;;;;11.40;99.90;;;;;;5054316;28;20054;-75
2023/04/01 10:30:39;;;;;;;;;;;11.40;99.90;;;;;;5036486;28;19912;-73
2023/04/01 10:33:14;;;;;;;;;;;11.50;99.90;;;;;;5036447;28;19911;-73
2023/04/01 10:35:59;;;;;;;;;;;11.60;99.90;;;;;;5036731;28;20391;-74
2023/04/01 10:38:40;;;;;;;;;;;11.60;99.90;;;;;;5054060;28;19927;-74
2023/04/01 10:41:05;;;;;;;;;;;11.70;99.90;;;;;;5054760;28;19916;-74
2023/04/01 10:43:34;;;;;;;;;;;11.90;99.90;;;;;;5054250;28;19908;-74
2023/04/01 10:46:05;;;;;;;;;;;12.00;99.90;;;;;;5054173;28;19909;-74
2023/04/01 10:48:49;;;;;;;;;;;12.10;99.90;;;;;;5053808;28;19994;-73
2023/04/01 10:51:35;;;;;;;;;;;12.20;99.90;;;;;;5035976;28;19905;-75
2023/04/01 10:54:00;;;;;;;;;;;12.30;99.90;;;;;;5053422;28;19911;-74
2023/04/01 10:56:35;;;;;;;;;;;12.30;99.90;;;;;;5054020;28;19905;-76
2023/04/01 10:59:06;;;;;;;;;;;12.30;99.90;;;;;;5054323;28;20409;-74
2023/04/01 11:01:50;;;;;;;;;;;12.40;99.90;;;;;;5036251;28;19968;-74
2023/04/01 11:04:25;;;;;;;;;;;12.50;99.90;;;;;;5054201;28;19912;-74
2023/04/01 11:07:09;;;;;;;;;;;12.60;99.90;;;;;;5053757;28;20275;-74
2023/04/01 11:09:52;;;;;;;;;;;12.70;99.90;;;;;;5054112;28;20004;-74
2023/04/01 11:12:42;;;;;;;;;;;12.80;99.90;;;;;;5057224;28;19905;-74
2023/04/01 11:15:20;;;;;;;;;;;12.90;99.90;;;;;;5040195;28;19912;-74
2023/04/01 11:17:48;;;;;;;;;;;13.00;99.90;;;;;;5040046;28;19905;-74
2023/04/01 11:20:32;;;;;;;;;;;13.10;99.90;;;;;;5040954;28;19905;-74
2023/04/01 11:22:58;;;;;;;;;;;13.00;99.90;;;;;;5057812;28;20371;-77
2023/04/01 11:25:39;;;;;;;;;;;13.10;99.90;;;;;;5040662;28;19954;-74
2023/04/01 11:28:19;;;;;;;;;;;13.20;99.90;;;;;;5058133;28;19904;-74
2023/04/01 11:31:14;;;;;;;;;;;13.40;99.90;;;;;;5058892;28;19999;-77
2023/04/01 11:33:46;;;;;;;;;;;13.60;99.90;;;;;;4971558;28;19913;-77
2023/04/01 11:36:31;;;;;;;;;;;13.60;99.90;;;;;;5040644;28;19912;-75
2023/04/01 11:39:02;;;;;;;;;;;13.70;99.90;;;;;;5016813;28;19904;-74
2023/04/01 11:41:28;;;;;;;;;;;13.60;99.90;;;;;;5057367;28;20355;-75
2023/04/01 11:44:03;;;;;;;;;;;13.50;99.90;;;;;;5058934;28;19911;-78
2023/04/01 11:46:33;;;;;;;;;;;13.30;99.90;;;;;;5060050;28;19909;-78
2023/04/01 11:49:06;;;;;;;;;;;13.20;99.90;;;;;;5059491;28;19958;-78
2023/04/01 11:51:44;;;;;;;;;;;13.10;99.90;;;;;;5041582;28;20054;-79
2023/04/01 11:54:25;;;;;;;;;;;13.00;99.90;;;;;;5041835;28;19912;-78
2023/04/01 11:57:07;;;;;;;;;;;13.00;99.90;;;;;;5059563;28;19912;-78
2023/04/01 11:59:32;;;;;;;;;;;13.00;99.90;;;;;;5041005;28;19912;-78
2023/04/01 12:01:58;;;;;;;;;;;12.90;99.90;;;;;;5041535;28;19905;-78
2023/04/01 12:04:23;;;;;;;;;;;12.90;99.90;;;;;;5060115;28;19904;-78
2023/04/01 12:07:05;;;;;;;;;;;12.90;99.90;;;;;;5059090;28;20287;-78
2023/04/01 12:09:36;;;;;;;;;;;13.00;99.90;;;;;;5058934;28;19912;-78
2023/04/01 12:12:17;;;;;;;;;;;12.90;99.90;;;;;;5059307;28;19905;-78
2023/04/01 12:14:54;;;;;;;;;;;13.00;99.90;;;;;;5059164;28;19909;-75
2023/04/01 12:17:34;;;;;;;;;;;12.90;99.90;;;;;;5039040;28;20012;-75
2023/04/01 12:20:11;;;;;;;;;;;12.80;99.90;;;;;;5057512;28;19905;-75
2023/04/01 12:22:43;;;;;;;;;;;12.80;99.90;;;;;;5057483;28;19911;-75
2023/04/01 12:25:27;;;;;;;;;;;12.70;99.90;;;;;;5038625;28;19905;-75
2023/04/01 12:27:57;;;;;;;;;;;12.70;99.90;;;;;;5039029;28;19909;-74
2023/04/01 12:30:29;;;;;;;;;;;12.50;99.90;;;;;;5058026;28;19905;-74
2023/04/01 12:33:13;;;;;;;;;;;12.50;99.90;;;;;;5038942;28;19905;-74
2023/04/01 12:35:57;;;;;;;;;;;12.40;99.90;;;;;;5056643;28;19908;-74
2023/04/01 12:38:42;;;;;;;;;;;12.40;99.90;;;;;;5038152;28;19905;-74
2023/04/01 12:41:26;;;;;;;;;;;12.30;99.90;;;;;;5039327;28;19912;-77
2023/04/01 12:44:10;;;;;;;;;;;12.20;99.90;;;;;;5056965;28;19905;-77
2023/04/01 12:46:45;;;;;;;;;;;12.10;99.90;;;;;;5038676;28;19916;-74
2023/04/01 12:49:13;;;;;;;;;;;12.00;99.90;;;;;;5021660;28;19917;-74
2023/04/01 12:51:39;;;;;;;;;;;12.00;99.90;;;;;;5056254;28;20276;-76
2023/04/01 12:54:25;;;;;;;;;;;12.00;99.90;;;;;;5056821;28;19958;-75
2023/04/01 12:57:09;;;;;;;;;;;12.00;99.90;;;;;;5015363;28;19905;-75
2023/04/01 12:59:40;;;;;;;;;;;12.00;99.90;;;;;;5038252;28;20283;-75
2023/04/01 13:02:06;;;;;;;;;;;12.10;99.90;;;;;;5056552;28;20298;-76
2023/04/01 13:04:34;;;;;;;;;;;12.20;99.90;;;;;;5039620;28;19908;-75
2023/04/01 13:07:03;;;;;;;;;;;12.30;99.90;;;;;;5037987;28;19908;-75
2023/04/01 13:09:40;;;;;;;;;;;12.40;99.90;;;;;;5038165;28;19959;-75
2023/04/01 13:12:05;;;;;;;;;;;12.50;99.90;;;;;;5037909;28;19988;-75
2023/04/01 13:15:00;;;;;;;;;;;12.70;99.90;;;;;;5056276;28;19951;-75
2023/04/01 13:17:40;;;;;;;;;;;12.90;99.90;;;;;;5038270;28;20336;-75
2023/04/01 13:20:18;;;;;;;;;;;13.20;99.90;;;;;;5055825;28;19905;-75
2023/04/01 13:22:43;;;;;;;;;;;13.30;99.90;;;;;;5056233;28;19912;-75
2023/04/01 13:25:17;;;;;;;;;;;14.70;99.90;;;;;;5055997;28;19904;-75
2023/04/01 13:27:48;;;;;;;;;;;13.20;99.90;;;;;;5055759;28;19951;-75
2023/04/01 13:30:16;;;;;;;;;;;13.10;99.90;;;;;;5055662;28;19905;-74
2023/04/01 13:33:17;;;;;;;;;;;13.00;99.90;;;;;;5055389;28;19916;-74
2023/04/01 13:35:56;;;;;;;;;;;12.80;99.90;;;;;;4974975;28;19910;-74
2023/04/01 13:38:46;;;;;;;;;;;12.60;99.90;;;;;;5028283;28;19916;-74
2023/04/01 13:41:20;;;;;;;;;;;12.40;99.90;;;;;;5037254;28;19909;-74
2023/04/01 13:43:49;;;;;;;;;;;12.20;99.90;;;;;;5055053;28;19905;-75
2023/04/01 13:46:34;;;;;;;;;;;12.10;99.90;;;;;;5054823;28;19916;-75
2023/04/01 13:49:03;;;;;;;;;;;12.00;99.90;;;;;;5037087;28;19916;-74
2023/04/01 13:51:28;;;;;;;;;;;11.90;99.90;;;;;;5054881;28;19911;-75
2023/04/01 13:54:12;;;;;;;;;;;11.80;99.90;;;;;;5037063;28;20407;-75
2023/04/01 13:56:47;;;;;;;;;;;11.60;99.90;;;;;;5055378;28;19909;-75
2023/04/01 13:59:20;;;;;;;;;;;11.60;99.90;;;;;;5037031;28;19952;-74
2023/04/01 14:02:05;;;;;;;;;;;11.50;99.90;;;;;;5054598;28;20352;-74
2023/04/01 14:04:31;;;;;;;;;;;11.40;99.90;;;;;;5054759;28;19909;-74
2023/04/01 14:06:57;;;;;;;;;;;11.30;99.90;;;;;;5036785;28;19917;-74
2023/04/01 14:09:41;;;;;;;;;;;11.30;99.90;;;;;;5036648;28;19911;-74
2023/04/01 14:12:06;;;;;;;;;;;11.20;99.90;;;;;;5054650;28;20288;-75
2023/04/01 14:14:52;;;;;;;;;;;11.20;99.90;;;;;;5055521;28;19912;-74
2023/04/01 14:17:33;;;;;;;;;;;11.10;99.90;;;;;;5036886;28;19904;-74
2023/04/01 14:20:02;;;;;;;;;;;11.10;99.90;;;;;;5054288;28;19911;-74
2023/04/01 14:22:27;;;;;;;;;;;11.10;99.90;;;;;;5036540;28;19905;-74
2023/04/01 14:24:56;;;;;;;;;;;11.10;99.90;;;;;;5054356;28;19954;-74
2023/04/01 14:27:28;;;;;;;;;;;11.20;99.90;;;;;;5054143;28;19913;-74
2023/04/01 14:30:02;;;;;;;;;;;11.30;99.90;;;;;;5054610;28;19904;-74
2023/04/01 14:32:40;;;;;;;;;;;11.30;99.90;;;;;;5054266;28;20269;-74
2023/04/01 14:35:14;;;;;;;;;;;11.40;99.90;;;;;;5054258;28;19928;-74
2023/04/01 14:37:49;;;;;;;;;;;11.40;99.90;;;;;;5036102;28;19951;-74
2023/04/01 14:40:25;;;;;;;;;;;11.40;99.90;;;;;;5053991;28;19905;-74
2023/04/01 14:43:01;;;;;;;;;;;11.40;99.90;;;;;;5054645;28;19909;-74
2023/04/01 14:45:45;;;;;;;;;;;11.40;99.90;;;;;;5053057;28;20279;-74